sensor_id;sensor_type;location;lat;lon;timestamp;pressure;altitude;pressure_sealevel;temperature;humidity
27144;BME280;14672;50.250;8.312;2023-03-25T00:00:08;97885.66;;;12.56;58.98
27144;BME280;14672;50.250;8.312;2023-03-25T00:02:50;97884.38;;;12.57;58.79
27144;BME280;14672;50.250;8.312;2023-03-25T00:05:19;97892.88;;;12.71;58.17
27144;BME280;14672;50.250;8.312;2023-03-25T00:07:50;97892.22;;;12.62;58.71
27144;BME280;14672;50.250;8.312;2023-03-25T00:10:16;97890.03;;;12.71;58.52
27144;BME280;14672;50.250;8.312;2023-03-25T00:12:42;97890.66;;;12.61;58.78
27144;BME280;14672;50.250;8.312;2023-03-25T00:15:11;97892.78;;;12.66;58.43
27144;BME280;14672;50.250;8.312;2023-03-25T00:17:38;97887.22;;;12.57;58.32
27144;BME280;14672;50.250;8.312;2023-03-25T00:20:07;97894.50;;;12.58;58.34
27144;BME280;14672;50.250;8.312;2023-03-25T00:22:34;97894.22;;;12.56;58.24
27144;BME280;14672;50.250;8.312;2023-03-25T00:25:11;97907.13;;;12.71;57.63
27144;BME280;14672;50.250;8.312;2023-03-25T00:27:41;97918.16;;;12.64;58.15
27144;BME280;14672;50.250;8.312;2023-03-25T00:30:09;97921.00;;;12.64;58.37
27144;BME280;14672;50.250;8.312;2023-03-25T00:32:35;97915.41;;;12.69;58.46
27144;BME280;14672;50.250;8.312;2023-03-25T00:35:01;97930.03;;;12.62;57.78
27144;BME280;14672;50.250;8.312;2023-03-25T00:37:27;97931.72;;;12.69;57.49
27144;BME280;14672;50.250;8.312;2023-03-25T00:39:54;97928.28;;;12.65;57.93
27144;BME280;14672;50.250;8.312;2023-03-25T00:42:20;97933.47;;;12.66;57.60
27144;BME280;14672;50.250;8.312;2023-03-25T00:44:51;97923.94;;;12.69;57.59
27144;BME280;14672;50.250;8.312;2023-03-25T00:47:18;97931.50;;;12.73;57.42
27144;BME280;14672;50.250;8.312;2023-03-25T00:49:47;97927.84;;;12.72;57.24
27144;BME280;14672;50.250;8.312;2023-03-25T00:52:14;97932.50;;;12.69;56.87
27144;BME280;14672;50.250;8.312;2023-03-25T00:54:41;97934.56;;;12.69;57.04
27144;BME280;14672;50.250;8.312;2023-03-25T00:57:07;97936.09;;;12.70;57.24
27144;BME280;14672;50.250;8.312;2023-03-25T00:59:33;97921.50;;;12.62;57.48
27144;BME280;14672;50.250;8.312;2023-03-25T01:02:00;97918.78;;;12.53;57.56
27144;BME280;14672;50.250;8.312;2023-03-25T01:04:27;97912.28;;;12.53;57.33
27144;BME280;14672;50.250;8.312;2023-03-25T01:06:58;97910.44;;;12.50;57.90
27144;BME280;14672;50.250;8.312;2023-03-25T01:09:26;97906.38;;;12.56;57.92
27144;BME280;14672;50.250;8.312;2023-03-25T01:11:52;97898.31;;;12.55;57.79
27144;BME280;14672;50.250;8.312;2023-03-25T01:14:20;97905.66;;;12.41;58.02
27144;BME280;14672;50.250;8.312;2023-03-25T01:16:52;97891.47;;;12.47;57.86
27144;BME280;14672;50.250;8.312;2023-03-25T01:19:19;97899.81;;;12.50;58.12
27144;BME280;14672;50.250;8.312;2023-03-25T01:21:46;97890.69;;;12.46;58.18
27144;BME280;14672;50.250;8.312;2023-03-25T01:24:13;97894.13;;;12.50;58.25
27144;BME280;14672;50.250;8.312;2023-03-25T01:26:41;97884.50;;;12.48;58.25
27144;BME280;14672;50.250;8.312;2023-03-25T01:29:09;97886.16;;;12.54;58.38
27144;BME280;14672;50.250;8.312;2023-03-25T01:31:35;97886.34;;;12.51;58.17
27144;BME280;14672;50.250;8.312;2023-03-25T01:34:01;97886.56;;;12.47;58.29
27144;BME280;14672;50.250;8.312;2023-03-25T01:36:28;97870.25;;;12.48;58.55
27144;BME280;14672;50.250;8.312;2023-03-25T01:38:54;97872.84;;;12.46;58.47
27144;BME280;14672;50.250;8.312;2023-03-25T01:41:21;97870.97;;;12.43;58.62
27144;BME280;14672;50.250;8.312;2023-03-25T01:44:06;97878.13;;;12.53;58.23
27144;BME280;14672;50.250;8.312;2023-03-25T01:46:33;97864.31;;;12.31;59.44
27144;BME280;14672;50.250;8.312;2023-03-25T01:49:02;97874.53;;;12.38;59.12
27144;BME280;14672;50.250;8.312;2023-03-25T01:51:35;97873.81;;;12.43;58.94
27144;BME280;14672;50.250;8.312;2023-03-25T01:54:04;97864.78;;;12.44;58.58
27144;BME280;14672;50.250;8.312;2023-03-25T01:56:35;97872.06;;;12.45;59.01
27144;BME280;14672;50.250;8.312;2023-03-25T01:59:05;97868.78;;;12.52;59.02
27144;BME280;14672;50.250;8.312;2023-03-25T02:01:32;97864.88;;;12.50;59.37
27144;BME280;14672;50.250;8.312;2023-03-25T02:03:59;97856.94;;;12.39;60.04
27144;BME280;14672;50.250;8.312;2023-03-25T02:06:46;97842.78;;;12.45;60.41
27144;BME280;14672;50.250;8.312;2023-03-25T02:09:18;97847.81;;;12.35;60.39
27144;BME280;14672;50.250;8.312;2023-03-25T02:11:44;97838.31;;;12.23;60.75
27144;BME280;14672;50.250;8.312;2023-03-25T02:14:24;97840.88;;;12.21;60.75
27144;BME280;14672;50.250;8.312;2023-03-25T02:29:08;97819.22;;;12.09;62.65
27144;BME280;14672;50.250;8.312;2023-03-25T02:32:18;97814.06;;;12.28;62.14
27144;BME280;14672;50.250;8.312;2023-03-25T02:35:23;97819.16;;;11.89;63.30
27144;BME280;14672;50.250;8.312;2023-03-25T02:43:19;97802.88;;;11.75;63.93
27144;BME280;14672;50.250;8.312;2023-03-25T02:45:53;97813.22;;;12.07;63.16
27144;BME280;14672;50.250;8.312;2023-03-25T02:48:54;97804.06;;;11.83;63.58
27144;BME280;14672;50.250;8.312;2023-03-25T02:51:52;97803.41;;;12.08;62.70
27144;BME280;14672;50.250;8.312;2023-03-25T02:54:21;97799.84;;;11.93;62.86
27144;BME280;14672;50.250;8.312;2023-03-25T02:56:49;97804.84;;;11.84;62.88
27144;BME280;14672;50.250;8.312;2023-03-25T02:59:17;97795.66;;;12.09;62.56
27144;BME280;14672;50.250;8.312;2023-03-25T03:01:46;97791.97;;;11.88;62.71
27144;BME280;14672;50.250;8.312;2023-03-25T03:04:15;97802.34;;;12.06;62.26
27144;BME280;14672;50.250;8.312;2023-03-25T03:06:42;97792.50;;;12.07;61.76
27144;BME280;14672;50.250;8.312;2023-03-25T03:09:21;97805.47;;;12.08;62.51
27144;BME280;14672;50.250;8.312;2023-03-25T03:15:12;97812.22;;;12.10;62.34
27144;BME280;14672;50.250;8.312;2023-03-25T03:18:13;97799.28;;;12.09;61.63
27144;BME280;14672;50.250;8.312;2023-03-25T03:20:54;97799.09;;;12.13;61.91
27144;BME280;14672;50.250;8.312;2023-03-25T03:23:35;97801.81;;;12.22;61.70
27144;BME280;14672;50.250;8.312;2023-03-25T03:29:11;97805.09;;;12.35;61.35
27144;BME280;14672;50.250;8.312;2023-03-25T03:32:32;97794.47;;;12.36;61.00
27144;BME280;14672;50.250;8.312;2023-03-25T03:35:07;97801.44;;;12.35;61.51
27144;BME280;14672;50.250;8.312;2023-03-25T03:37:42;97800.53;;;12.43;60.88
27144;BME280;14672;50.250;8.312;2023-03-25T03:40:16;97808.88;;;12.47;60.68
27144;BME280;14672;50.250;8.312;2023-03-25T03:43:34;97811.94;;;12.43;60.56
27144;BME280;14672;50.250;8.312;2023-03-25T03:45:58;97812.72;;;12.44;60.02
27144;BME280;14672;50.250;8.312;2023-03-25T03:48:35;97821.75;;;12.42;59.53
27144;BME280;14672;50.250;8.312;2023-03-25T03:51:14;97819.47;;;12.46;59.65
27144;BME280;14672;50.250;8.312;2023-03-25T03:57:07;97832.03;;;12.54;59.18
27144;BME280;14672;50.250;8.312;2023-03-25T04:00:10;97843.13;;;12.52;59.96
27144;BME280;14672;50.250;8.312;2023-03-25T04:02:49;97847.19;;;12.46;60.29
27144;BME280;14672;50.250;8.312;2023-03-25T04:05:19;97846.63;;;12.42;59.73
27144;BME280;14672;50.250;8.312;2023-03-25T04:08:03;97847.59;;;12.39;59.71
27144;BME280;14672;50.250;8.312;2023-03-25T04:10:55;97856.72;;;12.43;59.63
27144;BME280;14672;50.250;8.312;2023-03-25T04:13:34;97854.06;;;12.39;59.19
27144;BME280;14672;50.250;8.312;2023-03-25T04:16:01;97854.66;;;12.43;58.51
27144;BME280;14672;50.250;8.312;2023-03-25T04:18:27;97854.91;;;12.25;59.20
27144;BME280;14672;50.250;8.312;2023-03-25T04:20:54;97847.31;;;12.37;58.18
27144;BME280;14672;50.250;8.312;2023-03-25T04:23:20;97857.72;;;12.40;58.51
27144;BME280;14672;50.250;8.312;2023-03-25T04:25:47;97854.03;;;12.34;58.18
27144;BME280;14672;50.250;8.312;2023-03-25T04:28:18;97854.28;;;12.36;58.20
27144;BME280;14672;50.250;8.312;2023-03-25T04:30:44;97852.44;;;12.33;58.03
27144;BME280;14672;50.250;8.312;2023-03-25T04:33:13;97860.56;;;12.40;58.09
27144;BME280;14672;50.250;8.312;2023-03-25T04:35:39;97875.50;;;12.35;57.89
27144;BME280;14672;50.250;8.312;2023-03-25T04:38:06;97857.97;;;12.21;57.89
27144;BME280;14672;50.250;8.312;2023-03-25T04:40:33;97861.69;;;12.28;57.87
27144;BME280;14672;50.250;8.312;2023-03-25T04:42:58;97868.25;;;12.34;57.34
27144;BME280;14672;50.250;8.312;2023-03-25T04:45:25;97863.03;;;12.32;57.49
27144;BME280;14672;50.250;8.312;2023-03-25T04:47:53;97867.47;;;12.33;57.46
27144;BME280;14672;50.250;8.312;2023-03-25T04:50:25;97861.50;;;12.16;58.01
27144;BME280;14672;50.250;8.312;2023-03-25T04:52:52;97876.59;;;12.22;58.10
27144;BME280;14672;50.250;8.312;2023-03-25T04:55:19;97874.66;;;12.29;57.70
27144;BME280;14672;50.250;8.312;2023-03-25T04:57:50;97878.94;;;11.89;58.25
27144;BME280;14672;50.250;8.312;2023-03-25T05:00:20;97871.94;;;12.05;57.67
27144;BME280;14672;50.250;8.312;2023-03-25T05:02:50;97880.56;;;12.10;57.79
27144;BME280;14672;50.250;8.312;2023-03-25T05:05:23;97913.53;;;12.02;57.51
27144;BME280;14672;50.250;8.312;2023-03-25T05:07:52;97891.75;;;11.99;57.82
27144;BME280;14672;50.250;8.312;2023-03-25T05:10:22;97892.72;;;12.11;57.58
27144;BME280;14672;50.250;8.312;2023-03-25T05:12:49;97892.44;;;12.09;57.45
27144;BME280;14672;50.250;8.312;2023-03-25T05:15:16;97884.19;;;12.11;57.35
27144;BME280;14672;50.250;8.312;2023-03-25T05:17:42;97884.50;;;11.98;57.70
27144;BME280;14672;50.250;8.312;2023-03-25T05:20:09;97890.09;;;12.07;57.70
27144;BME280;14672;50.250;8.312;2023-03-25T05:22:37;97893.13;;;12.04;57.92
27144;BME280;14672;50.250;8.312;2023-03-25T05:25:08;97891.94;;;12.10;57.66
27144;BME280;14672;50.250;8.312;2023-03-25T05:27:37;97910.91;;;11.99;58.57
27144;BME280;14672;50.250;8.312;2023-03-25T05:30:05;97910.81;;;12.08;58.89
27144;BME280;14672;50.250;8.312;2023-03-25T05:32:32;97903.53;;;12.07;59.22
27144;BME280;14672;50.250;8.312;2023-03-25T05:34:59;97905.22;;;11.99;59.26
27144;BME280;14672;50.250;8.312;2023-03-25T05:37:25;97912.28;;;12.03;59.51
27144;BME280;14672;50.250;8.312;2023-03-25T05:39:51;97907.00;;;11.82;59.48
27144;BME280;14672;50.250;8.312;2023-03-25T05:42:18;97909.56;;;11.94;59.09
27144;BME280;14672;50.250;8.312;2023-03-25T05:44:52;97904.81;;;11.91;59.54
27144;BME280;14672;50.250;8.312;2023-03-25T05:47:20;97914.66;;;11.90;59.14
27144;BME280;14672;50.250;8.312;2023-03-25T05:49:49;97914.66;;;11.90;58.84
27144;BME280;14672;50.250;8.312;2023-03-25T05:52:17;97913.94;;;11.95;58.64
27144;BME280;14672;50.250;8.312;2023-03-25T05:54:44;97916.00;;;11.95;58.77
27144;BME280;14672;50.250;8.312;2023-03-25T05:57:12;97905.13;;;11.93;58.50
27144;BME280;14672;50.250;8.312;2023-03-25T05:59:38;97911.41;;;11.97;58.45
27144;BME280;14672;50.250;8.312;2023-03-25T06:02:15;97915.03;;;11.98;58.37
27144;BME280;14672;50.250;8.312;2023-03-25T06:04:42;97920.53;;;12.01;58.05
27144;BME280;14672;50.250;8.312;2023-03-25T06:07:09;97922.88;;;12.03;57.80
27144;BME280;14672;50.250;8.312;2023-03-25T06:09:48;97923.09;;;11.85;58.52
27144;BME280;14672;50.250;8.312;2023-03-25T06:12:20;97919.81;;;12.06;57.81
27144;BME280;14672;50.250;8.312;2023-03-25T06:14:47;97919.25;;;12.02;57.55
27144;BME280;14672;50.250;8.312;2023-03-25T06:17:20;97915.50;;;12.11;57.56
27144;BME280;14672;50.250;8.312;2023-03-25T06:19:50;97926.22;;;12.01;58.10
27144;BME280;14672;50.250;8.312;2023-03-25T06:22:17;97917.91;;;11.98;58.23
27144;BME280;14672;50.250;8.312;2023-03-25T06:24:46;97927.31;;;11.89;58.09
27144;BME280;14672;50.250;8.312;2023-03-25T06:27:16;97929.06;;;12.01;57.59
27144;BME280;14672;50.250;8.312;2023-03-25T06:29:43;97932.19;;;12.03;57.77
27144;BME280;14672;50.250;8.312;2023-03-25T06:32:12;97932.00;;;12.07;57.61
27144;BME280;14672;50.250;8.312;2023-03-25T06:34:39;97934.28;;;12.17;57.83
27144;BME280;14672;50.250;8.312;2023-03-25T06:37:08;97927.09;;;12.07;57.94
27144;BME280;14672;50.250;8.312;2023-03-25T06:39:34;97917.28;;;12.08;57.62
27144;BME280;14672;50.250;8.312;2023-03-25T06:42:04;97912.19;;;12.12;57.85
27144;BME280;14672;50.250;8.312;2023-03-25T06:44:30;97905.50;;;12.15;57.98
27144;BME280;14672;50.250;8.312;2023-03-25T06:46:56;97901.97;;;12.20;57.73
27144;BME280;14672;50.250;8.312;2023-03-25T06:49:22;97901.56;;;12.13;57.34
27144;BME280;14672;50.250;8.312;2023-03-25T06:51:48;97918.94;;;12.15;57.46
27144;BME280;14672;50.250;8.312;2023-03-25T06:54:14;97930.06;;;12.13;57.50
27144;BME280;14672;50.250;8.312;2023-03-25T06:56:40;97926.22;;;12.01;56.97
27144;BME280;14672;50.250;8.312;2023-03-25T06:59:06;97912.28;;;12.18;56.69
27144;BME280;14672;50.250;8.312;2023-03-25T07:01:31;97923.16;;;12.19;56.50
27144;BME280;14672;50.250;8.312;2023-03-25T07:03:57;97903.53;;;12.21;57.02
27144;BME280;14672;50.250;8.312;2023-03-25T07:06:24;97915.69;;;12.37;56.99
27144;BME280;14672;50.250;8.312;2023-03-25T07:08:50;97915.72;;;12.22;56.67
27144;BME280;14672;50.250;8.312;2023-03-25T07:11:26;97907.28;;;12.13;56.74
27144;BME280;14672;50.250;8.312;2023-03-25T07:13:53;97910.97;;;12.19;56.76
27144;BME280;14672;50.250;8.312;2023-03-25T07:16:20;97900.59;;;12.16;56.67
27144;BME280;14672;50.250;8.312;2023-03-25T07:18:46;97898.28;;;12.35;56.48
27144;BME280;14672;50.250;8.312;2023-03-25T07:21:12;97902.72;;;12.36;56.43
27144;BME280;14672;50.250;8.312;2023-03-25T07:23:38;97908.81;;;12.29;56.61
27144;BME280;14672;50.250;8.312;2023-03-25T07:26:05;97901.31;;;12.46;55.82
27144;BME280;14672;50.250;8.312;2023-03-25T07:28:31;97902.22;;;12.37;56.55
27144;BME280;14672;50.250;8.312;2023-03-25T07:30:56;97890.25;;;12.33;56.40
27144;BME280;14672;50.250;8.312;2023-03-25T07:33:22;97919.44;;;12.13;56.13
27144;BME280;14672;50.250;8.312;2023-03-25T07:35:48;97909.13;;;12.16;56.26
27144;BME280;14672;50.250;8.312;2023-03-25T07:38:14;97897.00;;;12.36;56.00
27144;BME280;14672;50.250;8.312;2023-03-25T07:40:40;97912.13;;;12.42;55.81
27144;BME280;14672;50.250;8.312;2023-03-25T07:43:06;97915.34;;;12.49;55.70
27144;BME280;14672;50.250;8.312;2023-03-25T07:45:31;97921.53;;;12.48;55.42
27144;BME280;14672;50.250;8.312;2023-03-25T07:48:02;97936.00;;;12.44;55.16
27144;BME280;14672;50.250;8.312;2023-03-25T07:50:28;97922.81;;;12.47;55.59
27144;BME280;14672;50.250;8.312;2023-03-25T07:52:54;97917.00;;;12.56;55.60
27144;BME280;14672;50.250;8.312;2023-03-25T07:55:21;97906.81;;;12.49;55.74
27144;BME280;14672;50.250;8.312;2023-03-25T07:57:46;97904.38;;;12.62;55.48
27144;BME280;14672;50.250;8.312;2023-03-25T08:00:13;97913.88;;;12.54;55.40
27144;BME280;14672;50.250;8.312;2023-03-25T08:02:39;97912.72;;;12.66;55.26
27144;BME280;14672;50.250;8.312;2023-03-25T08:05:06;97908.59;;;12.67;56.10
27144;BME280;14672;50.250;8.312;2023-03-25T08:07:32;97904.97;;;12.66;56.53
27144;BME280;14672;50.250;8.312;2023-03-25T08:09:58;97909.44;;;12.53;57.19
27144;BME280;14672;50.250;8.312;2023-03-25T08:12:23;97912.47;;;12.64;57.04
27144;BME280;14672;50.250;8.312;2023-03-25T08:14:49;97918.16;;;12.64;57.21
27144;BME280;14672;50.250;8.312;2023-03-25T08:17:16;97917.13;;;12.82;57.52
27144;BME280;14672;50.250;8.312;2023-03-25T08:19:42;97913.28;;;12.85;57.93
27144;BME280;14672;50.250;8.312;2023-03-25T08:22:07;97920.13;;;12.93;57.53
27144;BME280;14672;50.250;8.312;2023-03-25T08:24:33;97917.69;;;12.86;57.30
27144;BME280;14672;50.250;8.312;2023-03-25T08:26:59;97909.06;;;13.00;57.02
27144;BME280;14672;50.250;8.312;2023-03-25T08:29:28;97908.56;;;13.02;56.08
27144;BME280;14672;50.250;8.312;2023-03-25T08:31:54;97897.16;;;13.02;55.92
27144;BME280;14672;50.250;8.312;2023-03-25T08:34:21;97902.38;;;13.03;56.85
27144;BME280;14672;50.250;8.312;2023-03-25T08:36:48;97896.97;;;13.05;57.21
27144;BME280;14672;50.250;8.312;2023-03-25T08:39:15;97910.13;;;13.03;56.45
27144;BME280;14672;50.250;8.312;2023-03-25T08:41:42;97908.22;;;13.14;56.59
27144;BME280;14672;50.250;8.312;2023-03-25T08:44:09;97895.09;;;13.02;55.38
27144;BME280;14672;50.250;8.312;2023-03-25T08:46:35;97902.66;;;13.05;54.57
27144;BME280;14672;50.250;8.312;2023-03-25T08:49:02;97896.53;;;12.92;54.83
27144;BME280;14672;50.250;8.312;2023-03-25T08:51:28;97903.06;;;12.98;54.68
27144;BME280;14672;50.250;8.312;2023-03-25T08:53:54;97893.09;;;13.08;54.91
27144;BME280;14672;50.250;8.312;2023-03-25T08:56:21;97894.31;;;13.22;54.54
27144;BME280;14672;50.250;8.312;2023-03-25T08:58:46;97894.16;;;12.91;54.20
27144;BME280;14672;50.250;8.312;2023-03-25T09:01:12;97896.09;;;12.99;53.88
27144;BME280;14672;50.250;8.312;2023-03-25T09:03:38;97889.13;;;13.00;54.18
27144;BME280;14672;50.250;8.312;2023-03-25T09:06:07;97906.00;;;12.84;54.72
27144;BME280;14672;50.250;8.312;2023-03-25T09:08:35;97913.28;;;13.05;54.10
27144;BME280;14672;50.250;8.312;2023-03-25T09:11:02;97936.28;;;12.81;55.72
27144;BME280;14672;50.250;8.312;2023-03-25T09:13:29;97986.69;;;12.75;57.77
27144;BME280;14672;50.250;8.312;2023-03-25T09:15:57;98036.84;;;11.94;59.08
27144;BME280;14672;50.250;8.312;2023-03-25T09:18:23;98017.47;;;11.21;60.33
27144;BME280;14672;50.250;8.312;2023-03-25T09:20:49;98004.50;;;11.44;59.78
27144;BME280;14672;50.250;8.312;2023-03-25T09:23:17;98041.41;;;11.05;60.71
27144;BME280;14672;50.250;8.312;2023-03-25T09:25:43;98034.66;;;11.26;59.88
27144;BME280;14672;50.250;8.312;2023-03-25T09:28:11;98056.94;;;10.95;61.97
27144;BME280;14672;50.250;8.312;2023-03-25T09:30:37;98001.78;;;10.78;61.82
27144;BME280;14672;50.250;8.312;2023-03-25T09:33:03;97995.19;;;10.72;62.57
27144;BME280;14672;50.250;8.312;2023-03-25T09:35:28;97987.50;;;10.87;62.16
27144;BME280;14672;50.250;8.312;2023-03-25T09:37:54;97986.91;;;10.83;62.76
27144;BME280;14672;50.250;8.312;2023-03-25T09:40:21;97984.19;;;10.89;62.12
27144;BME280;14672;50.250;8.312;2023-03-25T09:43:28;97979.59;;;10.91;62.60
27144;BME280;14672;50.250;8.312;2023-03-25T09:45:59;97984.34;;;10.94;62.99
27144;BME280;14672;50.250;8.312;2023-03-25T09:48:41;97985.03;;;11.04;62.50
27144;BME280;14672;50.250;8.312;2023-03-25T09:56:37;97994.59;;;11.15;63.22
27144;BME280;14672;50.250;8.312;2023-03-25T09:59:09;97981.78;;;12.26;59.62
27144;BME280;14672;50.250;8.312;2023-03-25T10:02:04;97971.19;;;12.76;57.74
27144;BME280;14672;50.250;8.312;2023-03-25T10:05:18;97969.94;;;12.97;59.55
27144;BME280;14672;50.250;8.312;2023-03-25T10:14:23;97963.72;;;12.99;58.47
27144;BME280;14672;50.250;8.312;2023-03-25T10:23:48;97956.00;;;13.86;59.33
27144;BME280;14672;50.250;8.312;2023-03-25T10:26:56;97962.56;;;13.92;57.36
27144;BME280;14672;50.250;8.312;2023-03-25T10:29:43;97950.56;;;13.88;57.57
27144;BME280;14672;50.250;8.312;2023-03-25T10:32:47;97955.94;;;14.06;56.53
27144;BME280;14672;50.250;8.312;2023-03-25T10:35:34;97948.66;;;13.79;57.17
27144;BME280;14672;50.250;8.312;2023-03-25T10:38:17;97955.16;;;13.80;56.94
27144;BME280;14672;50.250;8.312;2023-03-25T10:40:50;97949.22;;;14.35;55.49
27144;BME280;14672;50.250;8.312;2023-03-25T10:43:23;97945.84;;;14.73;55.45
27144;BME280;14672;50.250;8.312;2023-03-25T10:45:56;97937.88;;;14.46;54.63
27144;BME280;14672;50.250;8.312;2023-03-25T10:48:30;97962.38;;;14.58;53.20
27144;BME280;14672;50.250;8.312;2023-03-25T10:51:20;97937.63;;;14.86;54.48
27144;BME280;14672;50.250;8.312;2023-03-25T10:53:50;97935.34;;;14.96;52.82
27144;BME280;14672;50.250;8.312;2023-03-25T10:56:50;97941.16;;;14.70;51.41
27144;BME280;14672;50.250;8.312;2023-03-25T10:59:49;97944.03;;;14.70;50.24
27144;BME280;14672;50.250;8.312;2023-03-25T11:02:25;97967.44;;;14.74;49.97
27144;BME280;14672;50.250;8.312;2023-03-25T11:04:57;97963.44;;;14.97;49.97
27144;BME280;14672;50.250;8.312;2023-03-25T11:07:41;97953.81;;;14.95;50.14
27144;BME280;14672;50.250;8.312;2023-03-25T11:10:24;97944.09;;;15.24;48.57
27144;BME280;14672;50.250;8.312;2023-03-25T11:12:53;97943.22;;;15.07;48.83
27144;BME280;14672;50.250;8.312;2023-03-25T11:15:34;97948.56;;;15.41;47.74
27144;BME280;14672;50.250;8.312;2023-03-25T11:20:47;97968.41;;;15.02;47.62
27144;BME280;14672;50.250;8.312;2023-03-25T11:25:50;97970.31;;;15.17;48.05
27144;BME280;14672;50.250;8.312;2023-03-25T11:28:47;97970.63;;;15.24;47.24
27144;BME280;14672;50.250;8.312;2023-03-25T11:31:20;97969.44;;;14.99;47.49
27144;BME280;14672;50.250;8.312;2023-03-25T11:34:17;97963.53;;;15.09;47.07
27144;BME280;14672;50.250;8.312;2023-03-25T11:37:17;97962.00;;;14.76;47.03
27144;BME280;14672;50.250;8.312;2023-03-25T11:39:53;97960.44;;;15.18;46.80
27144;BME280;14672;50.250;8.312;2023-03-25T11:42:31;97946.94;;;15.24;47.75
27144;BME280;14672;50.250;8.312;2023-03-25T11:44:59;97937.22;;;15.58;46.42
27144;BME280;14672;50.250;8.312;2023-03-25T11:47:31;97938.63;;;16.13;47.45
27144;BME280;14672;50.250;8.312;2023-03-25T11:49:58;97937.63;;;16.16;47.00
27144;BME280;14672;50.250;8.312;2023-03-25T11:52:41;97941.75;;;16.04;44.87
27144;BME280;14672;50.250;8.312;2023-03-25T11:55:31;97949.72;;;15.61;45.46
27144;BME280;14672;50.250;8.312;2023-03-25T11:57:59;97933.13;;;15.92;44.51
27144;BME280;14672;50.250;8.312;2023-03-25T12:00:39;97947.75;;;16.17;45.10
27144;BME280;14672;50.250;8.312;2023-03-25T12:05:40;97942.28;;;16.13;43.55
27144;BME280;14672;50.250;8.312;2023-03-25T12:08:15;97938.91;;;16.42;43.48
27144;BME280;14672;50.250;8.312;2023-03-25T12:11:03;97931.63;;;16.47;43.22
27144;BME280;14672;50.250;8.312;2023-03-25T12:13:52;97936.81;;;16.04;43.85
27144;BME280;14672;50.250;8.312;2023-03-25T12:16:44;97935.72;;;15.85;44.07
27144;BME280;14672;50.250;8.312;2023-03-25T12:27:33;97917.78;;;16.29;43.68
27144;BME280;14672;50.250;8.312;2023-03-25T12:33:23;97912.28;;;15.86;43.33
27144;BME280;14672;50.250;8.312;2023-03-25T12:36:26;97915.19;;;16.09;42.58
27144;BME280;14672;50.250;8.312;2023-03-25T12:43:18;97907.13;;;16.63;42.84
27144;BME280;14672;50.250;8.312;2023-03-25T12:54:36;97912.59;;;16.33;42.58
27144;BME280;14672;50.250;8.312;2023-03-25T13:11:54;97917.75;;;15.79;43.99
27144;BME280;14672;50.250;8.312;2023-03-25T13:17:34;97899.56;;;16.54;43.61
27144;BME280;14672;50.250;8.312;2023-03-25T13:20:04;97888.25;;;17.01;42.82
27144;BME280;14672;50.250;8.312;2023-03-25T13:22:51;97892.59;;;17.24;43.32
27144;BME280;14672;50.250;8.312;2023-03-25T13:25:33;97893.59;;;17.43;43.02
27144;BME280;14672;50.250;8.312;2023-03-25T13:28:04;97875.00;;;17.55;41.57
27144;BME280;14672;50.250;8.312;2023-03-25T13:30:39;97886.66;;;17.68;41.18
27144;BME280;14672;50.250;8.312;2023-03-25T13:33:24;97884.63;;;17.63;41.38
27144;BME280;14672;50.250;8.312;2023-03-25T13:36:33;97897.94;;;17.61;42.13
27144;BME280;14672;50.250;8.312;2023-03-25T13:39:23;97908.00;;;17.26;41.60
27144;BME280;14672;50.250;8.312;2023-03-25T13:42:11;97897.09;;;17.08;40.78
27144;BME280;14672;50.250;8.312;2023-03-25T13:44:41;97914.66;;;16.82;41.02
27144;BME280;14672;50.250;8.312;2023-03-25T13:47:28;97912.84;;;16.79;42.49
27144;BME280;14672;50.250;8.312;2023-03-25T13:50:06;97909.13;;;17.01;42.91
27144;BME280;14672;50.250;8.312;2023-03-25T13:52:39;97911.66;;;17.21;42.12
27144;BME280;14672;50.250;8.312;2023-03-25T13:55:27;97907.59;;;16.89;41.87
27144;BME280;14672;50.250;8.312;2023-03-25T13:58:29;97898.78;;;17.45;42.68
27144;BME280;14672;50.250;8.312;2023-03-25T14:07:01;97904.19;;;18.06;41.40
27144;BME280;14672;50.250;8.312;2023-03-25T14:12:51;97902.81;;;18.18;40.11
27144;BME280;14672;50.250;8.312;2023-03-25T14:15:30;97905.09;;;18.25;39.65
27144;BME280;14672;50.250;8.312;2023-03-25T14:17:59;97912.91;;;18.30;38.97
27144;BME280;14672;50.250;8.312;2023-03-25T14:20:37;97923.56;;;18.00;37.34
27144;BME280;14672;50.250;8.312;2023-03-25T14:23:07;97905.69;;;18.18;36.98
27144;BME280;14672;50.250;8.312;2023-03-25T14:25:40;97925.53;;;18.51;36.49
27144;BME280;14672;50.250;8.312;2023-03-25T14:28:18;97906.47;;;18.48;35.97
27144;BME280;14672;50.250;8.312;2023-03-25T14:31:30;97901.66;;;17.97;36.86
27144;BME280;14672;50.250;8.312;2023-03-25T14:44:34;97897.19;;;18.01;37.41
27144;BME280;14672;50.250;8.312;2023-03-25T14:50:05;97896.38;;;18.06;37.25
27144;BME280;14672;50.250;8.312;2023-03-25T14:53:04;97900.38;;;17.92;36.85
27144;BME280;14672;50.250;8.312;2023-03-25T14:55:40;97886.06;;;17.87;35.57
27144;BME280;14672;50.250;8.312;2023-03-25T14:58:19;97897.06;;;18.18;35.39
27144;BME280;14672;50.250;8.312;2023-03-25T15:01:08;97878.25;;;18.17;34.79
27144;BME280;14672;50.250;8.312;2023-03-25T15:03:40;97895.25;;;18.45;34.21
27144;BME280;14672;50.250;8.312;2023-03-25T15:06:16;97870.75;;;18.38;34.17
27144;BME280;14672;50.250;8.312;2023-03-25T15:08:55;97871.16;;;18.53;33.87
27144;BME280;14672;50.250;8.312;2023-03-25T15:11:32;97893.09;;;18.21;33.76
27144;BME280;14672;50.250;8.312;2023-03-25T15:14:04;97884.44;;;18.26;33.66
27144;BME280;14672;50.250;8.312;2023-03-25T15:17:10;97864.69;;;17.76;34.14
27144;BME280;14672;50.250;8.312;2023-03-25T15:22:27;97882.13;;;18.19;34.26
27144;BME280;14672;50.250;8.312;2023-03-25T15:24:58;97886.06;;;17.87;34.22
27144;BME280;14672;50.250;8.312;2023-03-25T15:28:02;97863.19;;;17.64;35.27
27144;BME280;14672;50.250;8.312;2023-03-25T15:30:53;97854.59;;;18.00;35.44
27144;BME280;14672;50.250;8.312;2023-03-25T15:33:43;97870.78;;;18.03;35.14